Nearby METAR Reports

 

KMHT - Manchester, New Hampshire, USA
Distance from station: NNW 6mi, 9km
Updated: 2018-07-17 07:22
Mostly cloudy
Mostly cloudy
 Wind from S
Wind: S 7 mph , 11 km/h
Temperature: 75°F , 24°C
Dew Point: 72°F , 22°C
Humidity: 89%
Barometer: 29.83 inHg , 1010.2 hPa
Clouds: Mostly cloudy
Visibility: 10 miles , 16 km
Cloud details: Few Clouds 900 ft
Mostly cloudy 11000 ft
Mostly cloudy 20000 ft
Mostly cloudy 25000 ft
2018/07/17 11:22 KMHT 171122Z 19006KT 10SM FEW009 BKN110 BKN200 BKN250 24/22 A2983 RMK AO2 T02390217
KASH - Nashua/Boire Fld, New Hampshire, USA
Distance from station: SW 9mi, 15km
Updated: 2018-07-17 06:56
Few Clouds
Few Clouds
 Wind from SSE
Wind: SSE 3 mph , 6 km/h
Temperature: 73°F , 23°C
Dew Point: 73°F , 23°C
Humidity: 100%
Barometer: 29.85 inHg , 1010.8 hPa
Clouds: Few Clouds
Visibility: 10 miles , 16 km
Cloud details: Few Clouds 1000 ft
2018/07/17 10:56 KASH 171056Z 15003KT 10SM FEW010 23/23 A2985 RMK AO2 SLP115 T02330228
 
KLWM - Lawrence, Massachusetts, USA
Distance from station: SE 16mi, 26km
Updated: 2018-07-17 06:54
Partly cloudy
Partly cloudy
 Wind from SSW
Wind: SSW 8 mph , 13 km/h
Temperature: 77°F , 25°C
Dew Point: 70°F , 21°C
Humidity: 79%
Barometer: 29.87 inHg , 1011.5 hPa
Clouds: Partly cloudy
Visibility: 9 miles , 14 km
Cloud details: Partly cloudy 900 ft
2018/07/17 10:54 KLWM 171054Z 20007KT 9SM SCT009 25/21 A2987 RMK AO2 SLP112 T02500211
KCON - Concord, New Hampshire, USA
Distance from station: NNW 24mi, 39km
Updated: 2018-07-17 06:51
Mist, Clear
Mist, Clear
 Wind from SE
Wind: SE 5 mph , 7 km/h
Temperature: 73°F , 23°C
Dew Point: 72°F , 22°C
Humidity: 94%
Barometer: 29.84 inHg , 1010.5 hPa
Summary: Mist
Clouds: Clear
Visibility: 4 miles , 6 km
2018/07/17 10:51 KCON 171051Z AUTO 13004KT 4SM BR CLR 23/22 A2984 RMK AO2 SLP102 T02280217
 
KBED - Bedford, Massachusetts, USA
Distance from station: S 28mi, 45km
Updated: 2018-07-17 06:56
Few Clouds
Few Clouds
 Wind from SSW
Wind: SSW 7 mph , 11 km/h
Temperature: 75°F , 24°C
Dew Point: 72°F , 22°C
Humidity: 89%
Barometer: 29.85 inHg , 1010.8 hPa
Clouds: Few Clouds
Visibility: 9 miles , 14 km
Cloud details: Few Clouds 800 ft
2018/07/17 10:56 KBED 171056Z 20006KT 9SM FEW008 24/22 A2985 RMK AO2 SLP117 T02390222 $
KFIT - Fitchburg, Massachusetts, USA
Distance from station: SW 29mi, 47km
Updated: 2018-07-17 06:52
Clear
Clear
 Wind from SE
Wind: SE 6 mph , 9 km/h
Temperature: 75°F , 24°C
Dew Point: 72°F , 22°C
Humidity: 89%
Barometer: 29.86 inHg , 1011.2 hPa
Clouds: Clear
Visibility: 8 miles , 13 km
2018/07/17 10:52 KFIT 171052Z AUTO 13005KT 8SM CLR 24/22 A2986 RMK AO2 SLP109 T02390222 $
 
KBVY - Beverly, Massachusetts, USA
Distance from station: SE 30mi, 49km
Updated: 2018-07-17 06:53
Clear
Clear
 Wind from SSW
Wind: SSW 8 mph , 13 km/h
Temperature: 75°F , 24°C
Dew Point: 72°F , 22°C
Humidity: 89%
Barometer: 29.85 inHg , 1010.8 hPa
Clouds: Clear
Visibility: 8 miles , 13 km
2018/07/17 10:53 KBVY 171053Z 21007KT 8SM CLR 24/22 A2985 RMK AO2 SLP103 T02390222
KPSM - Portsmouth/Pease, New Hampshire, USA
Distance from station: ENE 31mi, 51km
Updated: 2018-07-17 06:56
Mist, Mostly cloudy
Mist, Mostly cloudy
 Wind from calm
Wind: Calm
Temperature: 68°F , 20°C
Dew Point: 68°F , 20°C
Humidity: 100%
Barometer: 29.84 inHg , 1010.5 hPa
Summary: Mist
Clouds: Mostly cloudy
Visibility: 4 miles , 6 km
Cloud details: Few Clouds 300 ft
Mostly cloudy 20000 ft
2018/07/17 10:56 KPSM 171056Z 00000KT 4SM BR FEW003 BKN200 20/20 A2984 RMK AO2A SLP107 T02040201
 
KAFN - Jaffrey, New Hampshire, USA
Distance from station: W 32mi, 52km
Updated: 2018-07-17 06:52
Mist, Overcast
Mist, Overcast
 Wind from SSW
Wind: SSW 5 mph , 7 km/h
Temperature: 72°F , 22°C
Dew Point: 72°F , 22°C
Humidity: 100%
Barometer: 29.88 inHg , 1011.9 hPa
Summary: Mist
Clouds: Overcast
Visibility: 3 miles , 5 km
Cloud details: Overcast 400 ft
2018/07/17 10:52 KAFN 171052Z AUTO 20004KT 3SM BR OVC004 22/22 A2988 RMK AO2 SLP116 T02220222
KDAW - Rochester, New Hampshire, USA
Distance from station: NE 37mi, 60km
Updated: 2018-07-17 06:51
Fog, Overcast
Fog, Overcast
 Wind from calm
Wind: Calm
Temperature: 68°F , 20°C
Dew Point: 68°F , 20°C
Humidity: 100%
Barometer: 29.85 inHg , 1010.8 hPa
Summary: Fog
Clouds: Overcast
Visibility: 1/4 mile , 0.4 km
Cloud details: Overcast 200 ft
2018/07/17 10:51 KDAW 171051Z AUTO 00000KT 1/4SM FG VV002 20/20 A2985 RMK AO2 SLP103 T02000200
 
KBOS - Boston, Massachusetts, USA
Distance from station: SSE 39mi, 63km
Updated: 2018-07-17 06:54
Partly cloudy
Partly cloudy
 Wind from SW
Wind: SW 15 mph , 24 km/h
Temperature: 77°F , 25°C
Dew Point: 72°F , 22°C
Humidity: 83%
Barometer: 29.86 inHg , 1011.2 hPa
Clouds: Partly cloudy
Visibility: 7 miles , 11 km
Cloud details: Few Clouds 7000 ft
Few Clouds 18000 ft
Partly cloudy 25000 ft
2018/07/17 10:54 KBOS 171054Z 22013KT 7SM FEW070 FEW180 SCT250 25/22 A2986 RMK AO2 SLP110 T02500217
KEEN - Keene/Dillant, New Hampshire, USA
Distance from station: W 45mi, 73km
Updated: 2018-07-17 06:56
Mist, Overcast
Mist, Overcast
 Wind from calm
Wind: Calm
Temperature: 72°F , 22°C
Dew Point: 72°F , 22°C
Humidity: 100%
Barometer: 29.86 inHg , 1011.2 hPa
Summary: Mist
Clouds: Overcast
Visibility: 6 miles , 10 km
Cloud details: Overcast 1000 ft
2018/07/17 10:56 KEEN 171056Z AUTO 00000KT 6SM BR OVC010 22/22 A2986 RMK AO2 LTG DSNT W AND NW SLP120 T02170217
 
KMQE - East Milton, Massachusetts, USA
Distance from station: SSE 47mi, 75km
Updated: 2018-07-17 06:56

 Wind from S
Wind: S 14 mph , 22 km/h, Gust: 21 mph , 33 km/h
Temperature: 72°F , 22°C
Dew Point: 72°F , 22°C
Humidity: 100%
Barometer: 29.88 inHg , 1011.9 hPa
2018/07/17 10:56 KMQE 171056Z AUTO 19012G18KT 22/22 A2988 RMK AO1 SLP125 T02220217
KORH - Worcester, Massachusetts, USA
Distance from station: SSW 48mi, 78km
Updated: 2018-07-16 19:54
NOT Current
Clear
Clear
 Wind from SSW
Wind: SSW 9 mph , 15 km/h
Temperature: 81°F , 27°C
Heat Index: 85°F , 29°C
Dew Point: 72°F , 22°C
Humidity: 74%
Barometer: 29.95 inHg , 1014.2 hPa
Clouds: Clear
Visibility: 10 miles , 16 km
2018/07/16 23:54 KORH 162354Z 20008KT 10SM CLR 27/22 A2995
 
KOWD - Norwood, Massachusetts, USA
Distance from station: SSE 48mi, 78km
Updated: 2018-07-17 06:53
Partly cloudy
Partly cloudy
 Wind from S
Wind: S 6 mph , 9 km/h
Temperature: 75°F , 24°C
Dew Point: 73°F , 23°C
Humidity: 94%
Barometer: 29.86 inHg , 1011.2 hPa
Clouds: Partly cloudy
Visibility: 9 miles , 14 km
Cloud details: Partly cloudy 1000 ft
2018/07/17 10:53 KOWD 171053Z 17005KT 9SM SCT010 24/23 A2986 RMK AO2 SLP112 T02440228
KLCI - Laconia Muni, New Hampshire, USA
Distance from station: N 49mi, 78km
Updated: 2018-07-17 06:56

 Wind from calm
Wind: Calm
Temperature: 73°F , 23°C
Dew Point: 70°F , 21°C
Humidity: 89%
Barometer: 29.85 inHg , 1010.8 hPa
Visibility: 7 miles , 11 km
2018/07/17 10:56 KLCI 171056Z AUTO 00000KT 7SM 23/21 A2985 RMK AO2 SLP116 T02280211
 
KSFM - Sanford Muni, Maine, USA
Distance from station: NE 49mi, 79km
Updated: 2018-07-17 07:40
Mist, Overcast
Mist, Overcast
 Wind from SSW
Wind: SSW 5 mph , 7 km/h
Temperature: 68°F , 20°C
Dew Point: 68°F , 20°C
Humidity: 100%
Barometer: 29.85 inHg , 1010.8 hPa
Summary: Mist
Clouds: Overcast
Visibility: 1 mile , 2 km
Cloud details: Overcast 300 ft
2018/07/17 11:40 KSFM 171140Z AUTO 21004KT 1SM BR OVC003 20/20 A2985 RMK AO2 RVRNO